Time;durP1;ratioP1;P1;durP2;ratioP2;P2;SDS_P1;SDS_P2;PMS_P1;PMS_P2;Temp;Humidity;BMP_temperature;BMP_pressure;BME280_temperature;BME280_humidity;BME280_pressure;Samples;Min_cycle;Max_cycle;Signal;HPM_P1;HPM_P2
2023/05/24 00:01:58;;;;;;;21.00;4.25;;;;;;;9.09;100.00;101199.53;4973863;28;20066;-67
2023/05/24 00:04:28;;;;;;;22.52;4.43;;;;;;;9.05;100.00;101206.13;4973876;28;20050;-66
2023/05/24 00:06:57;;;;;;;15.63;3.67;;;;;;;9.12;100.00;101208.25;4973037;28;20051;-66
2023/05/24 00:09:23;;;;;;;23.52;4.55;;;;;;;9.14;100.00;101208.97;4973467;28;20423;-66
2023/05/24 00:11:50;;;;;;;22.55;4.35;;;;;;;9.11;100.00;101212.75;4973405;28;20585;-66
2023/05/24 00:14:16;;;;;;;28.30;4.38;;;;;;;9.01;100.00;101203.88;4974995;28;20043;-66
2023/05/24 00:16:45;;;;;;;28.50;5.10;;;;;;;9.05;100.00;101208.78;4974257;28;20181;-66
2023/05/24 00:19:17;;;;;;;18.77;4.25;;;;;;;9.02;100.00;101209.09;4974463;28;20121;-66
2023/05/24 00:21:44;;;;;;;20.58;3.97;;;;;;;8.98;100.00;101206.81;4973705;28;20058;-67
2023/05/24 00:24:11;;;;;;;26.38;5.10;;;;;;;9.00;100.00;101216.41;4974199;28;20046;-69
2023/05/24 00:26:38;;;;;;;26.77;4.32;;;;;;;9.04;100.00;101216.97;4974189;28;20066;-66
2023/05/24 00:29:05;;;;;;;21.90;4.05;;;;;;;8.98;100.00;101214.84;4973918;28;20055;-67
2023/05/24 00:31:31;;;;;;;28.38;4.35;;;;;;;8.98;100.00;101218.34;4972492;28;20062;-66
2023/05/24 00:33:58;;;;;;;21.25;4.20;;;;;;;8.95;100.00;101223.13;4974672;28;20126;-66
2023/05/24 00:36:24;;;;;;;24.17;4.25;;;;;;;9.03;100.00;101226.84;4974351;28;20153;-66
2023/05/24 00:38:52;;;;;;;17.27;3.85;;;;;;;9.11;100.00;101214.59;4974628;28;20495;-66
2023/05/24 00:41:19;;;;;;;29.17;4.13;;;;;;;9.09;100.00;101220.06;4974467;28;20059;-66
2023/05/24 00:43:45;;;;;;;23.60;3.83;;;;;;;9.04;100.00;101212.47;4974307;28;20043;-66
2023/05/24 00:46:17;;;;;;;31.42;4.60;;;;;;;9.09;100.00;101215.59;4974599;28;20051;-65
2023/05/24 00:48:45;;;;;;;22.05;4.05;;;;;;;9.05;100.00;101213.31;4974364;28;20050;-65
2023/05/24 00:51:13;;;;;;;22.50;3.83;;;;;;;9.02;100.00;101214.44;4974725;28;20050;-66
2023/05/24 00:53:46;;;;;;;24.58;4.47;;;;;;;8.98;100.00;101221.03;4974441;28;20105;-65
2023/05/24 00:56:14;;;;;;;20.38;3.58;;;;;;;8.93;100.00;101217.94;4974181;28;20418;-65
2023/05/24 00:58:41;;;;;;;33.40;5.07;;;;;;;8.90;100.00;101210.19;4974799;28;20046;-65
2023/05/24 01:01:08;;;;;;;23.88;5.07;;;;;;;8.95;100.00;101218.63;4965367;28;20042;-65
2023/05/24 01:03:35;;;;;;;23.83;4.75;;;;;;;8.97;100.00;101211.31;4974458;28;20053;-64
2023/05/24 01:10:03;;;;;;;30.88;4.38;;;;;;;8.96;100.00;101219.50;4971519;28;20415;-66
2023/05/24 01:13:03;;;;;;;28.52;4.38;;;;;;;8.93;100.00;101217.94;4974181;28;20054;-66
2023/05/24 01:15:55;;;;;;;26.42;4.60;;;;;;;8.96;100.00;101216.81;4973993;28;20059;-65
2023/05/24 01:18:29;;;;;;;19.30;4.00;;;;;;;8.94;100.00;101216.94;4973578;28;20046;-66
2023/05/24 01:21:13;;;;;;;20.08;3.67;;;;;;;9.02;100.00;101211.78;4973812;28;20498;-65
2023/05/24 01:24:03;;;;;;;24.67;4.22;;;;;;;9.00;100.00;101219.09;4973359;28;20479;-64
2023/05/24 01:26:29;;;;;;;24.20;3.97;;;;;;;8.98;100.00;101228.22;4972836;28;20109;-67
2023/05/24 01:28:58;;;;;;;18.85;4.25;;;;;;;9.01;100.00;101215.41;4970450;28;20098;-65
2023/05/24 01:31:25;;;;;;;23.25;3.95;;;;;;;9.00;100.00;101221.75;4965929;28;20046;-65
2023/05/24 01:33:52;;;;;;;23.90;4.30;;;;;;;9.03;100.00;101216.13;4974247;28;20129;-65
2023/05/24 01:36:18;;;;;;;24.67;4.53;;;;;;;8.96;100.00;101223.03;4973719;28;20466;-65
2023/05/24 01:38:45;;;;;;;26.35;4.72;;;;;;;9.05;100.00;101215.97;4974067;28;20050;-65
2023/05/24 01:41:25;;;;;;;23.73;4.32;;;;;;;8.82;100.00;101228.75;4974204;28;20047;-66
2023/05/24 01:44:12;;;;;;;19.15;3.85;;;;;;;8.80;100.00;101222.69;4974166;28;20050;-66
2023/05/24 01:46:38;;;;;;;19.33;4.95;;;;;;;8.90;100.00;101215.53;4974722;28;20051;-66
2023/05/24 01:49:12;;;;;;;16.50;4.25;;;;;;;8.89;100.00;101227.22;4974223;28;20047;-65
2023/05/24 01:52:11;;;;;;;21.20;3.90;;;;;;;9.00;100.00;101221.75;4974368;28;20125;-65
2023/05/24 01:54:46;;;;;;;22.95;4.00;;;;;;;8.90;100.00;101223.56;4967344;28;20104;-65
2023/05/24 01:57:14;;;;;;;11.75;3.45;;;;;;;8.94;100.00;101232.16;4970631;28;20431;-66
2023/05/24 01:59:42;;;;;;;22.85;4.35;;;;;;;8.98;100.00;101221.03;4973611;28;20057;-67
2023/05/24 02:02:10;;;;;;;25.38;4.93;;;;;;;9.02;100.00;101230.50;4973129;28;20074;-65
2023/05/24 02:04:37;;;;;;;22.30;4.20;;;;;;;8.99;100.00;101233.47;4974362;28;20117;-65
2023/05/24 02:07:04;;;;;;;19.17;4.03;;;;;;;9.00;100.00;101226.28;4973730;28;20062;-65
2023/05/24 02:09:30;;;;;;;20.33;4.72;;;;;;;9.04;100.00;101233.88;4974036;28;20078;-67
2023/05/24 02:11:57;;;;;;;27.50;4.68;;;;;;;8.93;100.00;101230.47;4974052;28;20101;-65
2023/05/24 02:14:25;;;;;;;23.52;3.83;;;;;;;8.97;100.00;101235.41;4977328;28;20303;-64
2023/05/24 02:16:51;;;;;;;17.88;3.80;;;;;;;9.01;100.00;101227.94;4977392;28;20101;-65
2023/05/24 02:19:18;;;;;;;33.50;5.68;;;;;;;8.99;100.00;101235.25;4977432;28;20090;-66
2023/05/24 02:21:45;;;;;;;21.67;4.35;;;;;;;8.97;100.00;101223.88;4976579;28;20058;-66
2023/05/24 02:24:11;;;;;;;23.45;4.20;;;;;;;9.01;100.00;101218.09;4977274;28;20046;-70
2023/05/24 02:26:38;;;;;;;22.17;4.10;;;;;;;9.00;100.00;101229.78;4977788;28;20039;-65
2023/05/24 02:29:04;;;;;;;24.58;5.10;;;;;;;8.97;100.00;101219.34;4976594;28;20049;-65
2023/05/24 02:31:31;;;;;;;22.77;4.78;;;;;;;8.91;100.00;101219.91;4976978;28;21056;-65
2023/05/24 02:33:58;;;;;;;23.95;4.85;;;;;;;8.81;100.00;101217.19;4976740;28;20077;-66
2023/05/24 02:36:24;;;;;;;24.45;3.92;;;;;;;8.79;100.00;101216.50;4976759;28;20207;-65
2023/05/24 02:38:51;;;;;;;17.40;4.28;;;;;;;9.00;100.00;101221.75;4976373;28;20097;-64
2023/05/24 02:41:18;;;;;;;14.57;3.75;;;;;;;9.01;100.00;101222.59;4976210;28;20126;-65
2023/05/24 02:43:45;;;;;;;27.00;5.03;;;;;;;9.01;100.00;101219.91;4976242;28;20077;-64
2023/05/24 02:46:12;;;;;;;26.60;4.63;;;;;;;8.92;100.00;101220.72;4976201;28;20050;-66
2023/05/24 02:48:39;;;;;;;26.85;4.60;;;;;;;8.87;100.00;101218.47;4972645;28;20047;-65
2023/05/24 02:51:06;;;;;;;26.38;4.97;;;;;;;8.86;100.00;101219.47;4956640;28;20098;-65
2023/05/24 02:53:32;;;;;;;30.33;5.57;;;;;;;8.96;100.00;101225.69;4956405;28;20456;-66
2023/05/24 02:55:59;;;;;;;28.60;5.28;;;;;;;8.88;100.00;101230.88;4938835;28;20047;-65
2023/05/24 02:58:29;;;;;;;23.27;4.78;;;;;;;8.96;100.00;101222.19;4957213;28;20063;-65
2023/05/24 03:00:55;;;;;;;26.98;4.97;;;;;;;8.98;100.00;101225.53;4957286;28;20049;-65
2023/05/24 03:03:22;;;;;;;18.85;3.83;;;;;;;8.98;100.00;101228.22;4956386;28;20047;-65
2023/05/24 03:05:49;;;;;;;23.27;4.70;;;;;;;8.92;100.00;101229.63;4939427;29;20051;-65
2023/05/24 03:08:15;;;;;;;31.33;5.07;;;;;;;8.96;100.00;101224.84;4955698;29;20102;-65
2023/05/24 03:10:42;;;;;;;41.33;11.98;;;;;;;8.89;100.00;101223.72;4956515;29;20496;-67
2023/05/24 03:13:09;;;;;;;16.95;5.78;;;;;;;8.85;100.00;101226.66;4956454;28;20051;-65
2023/05/24 03:15:36;;;;;;;25.23;5.53;;;;;;;8.91;100.00;101227.09;4956700;29;20113;-65
2023/05/24 03:18:02;;;;;;;24.52;4.68;;;;;;;8.96;100.00;101228.38;4956943;28;20488;-66
2023/05/24 03:20:29;;;;;;;34.78;4.63;;;;;;;8.92;100.00;101228.75;4955858;29;20051;-65
2023/05/24 03:22:56;;;;;;;33.42;5.18;;;;;;;8.92;100.00;101226.97;4934830;29;20051;-65
2023/05/24 03:25:23;;;;;;;23.58;4.28;;;;;;;9.01;100.00;101227.94;4936489;28;20063;-65
2023/05/24 03:27:49;;;;;;;28.50;4.40;;;;;;;8.88;100.00;101230.03;4936368;28;20082;-65
2023/05/24 03:30:16;;;;;;;19.98;4.35;;;;;;;8.93;100.00;101231.31;4949426;28;20055;-65
2023/05/24 03:32:42;;;;;;;21.48;4.38;;;;;;;8.95;100.00;101236.53;4955900;28;20130;-66
2023/05/24 03:35:10;;;;;;;22.23;4.63;;;;;;;8.95;100.00;101239.19;4947211;28;20052;-66
2023/05/24 03:37:37;;;;;;;24.42;5.38;;;;;;;8.97;100.00;101234.56;4936169;29;20425;-65
2023/05/24 03:40:05;;;;;;;24.75;4.32;;;;;;;8.92;100.00;101237.66;4935738;29;20098;-65
2023/05/24 03:42:31;;;;;;;22.58;4.70;;;;;;;8.95;100.00;101237.38;4936344;29;22894;-65
2023/05/24 03:44:58;;;;;;;24.08;3.80;;;;;;;8.90;100.00;101242.28;4935963;29;20103;-65
2023/05/24 03:47:24;;;;;;;23.08;5.45;;;;;;;8.86;100.00;101243.56;4936898;28;20340;-65
2023/05/24 03:49:51;;;;;;;25.83;5.25;;;;;;;8.93;100.00;101246.53;4936228;28;20047;-65
2023/05/24 03:52:18;;;;;;;27.42;4.25;;;;;;;8.91;100.00;101246.66;4936252;29;20508;-65
2023/05/24 03:54:44;;;;;;;26.00;4.03;;;;;;;8.92;100.00;101251.03;4936068;28;20130;-65
2023/05/24 03:57:11;;;;;;;18.73;3.92;;;;;;;8.95;100.00;101250.75;4935825;28;20051;-66
2023/05/24 03:59:38;;;;;;;27.48;4.53;;;;;;;8.92;100.00;101250.16;4936069;28;20099;-66
2023/05/24 04:02:06;;;;;;;20.23;4.45;;;;;;;8.94;100.00;101250.91;4935285;28;20496;-66
2023/05/24 04:04:33;;;;;;;22.85;4.90;;;;;;;9.04;100.00;101249.09;4935232;28;20043;-66
2023/05/24 04:07:00;;;;;;;24.48;4.20;;;;;;;8.95;100.00;101245.38;4935671;28;20048;-66
2023/05/24 04:09:26;;;;;;;32.17;5.32;;;;;;;8.98;100.00;101245.13;4935602;28;20059;-67
2023/05/24 04:11:53;;;;;;;23.92;4.63;;;;;;;9.06;100.00;101253.34;4935074;28;20048;-66
2023/05/24 04:14:20;;;;;;;23.65;4.22;;;;;;;9.06;100.00;101253.34;4935857;28;20505;-66
2023/05/24 04:16:47;;;;;;;31.15;4.85;;;;;;;9.05;100.00;101251.63;4935548;28;20555;-66
2023/05/24 04:19:13;;;;;;;23.52;4.47;;;;;;;9.04;100.00;101252.59;4936208;28;20051;-66
2023/05/24 04:21:40;;;;;;;28.55;5.47;;;;;;;9.07;100.00;101255.00;4944057;28;20098;-67
2023/05/24 04:24:07;;;;;;;25.73;5.05;;;;;;;8.99;100.00;101260.22;4954568;28;20523;-66
2023/05/24 04:26:33;;;;;;;24.92;4.32;;;;;;;8.97;100.00;101254.13;4954414;28;20415;-66
2023/05/24 04:29:00;;;;;;;22.90;4.93;;;;;;;8.98;100.00;101254.97;4956642;28;20054;-66
2023/05/24 04:31:29;;;;;;;31.67;5.85;;;;;;;8.96;100.00;101262.31;4973254;28;20055;-65
2023/05/24 04:33:57;;;;;;;24.58;5.35;;;;;;;8.98;100.00;101258.50;4973597;28;20134;-65
2023/05/24 04:36:25;;;;;;;26.27;5.20;;;;;;;8.95;100.00;101263.28;4960907;28;20492;-65
2023/05/24 04:38:55;;;;;;;23.60;4.93;;;;;;;9.00;100.00;101261.06;4954342;28;20046;-65
2023/05/24 04:41:21;;;;;;;22.83;4.95;;;;;;;9.13;100.00;101266.13;4954814;28;20055;-64
2023/05/24 04:43:49;;;;;;;23.90;5.35;;;;;;;9.06;100.00;101265.88;4954845;28;20047;-67
2023/05/24 04:46:15;;;;;;;29.77;5.28;;;;;;;9.16;100.00;101274.78;4954583;28;20051;-65
2023/05/24 04:48:42;;;;;;;27.17;5.43;;;;;;;9.08;100.00;101270.09;4954561;28;20106;-70
2023/05/24 04:51:09;;;;;;;28.00;4.78;;;;;;;9.09;100.00;101279.81;4955186;28;20492;-65
2023/05/24 04:53:36;;;;;;;32.92;5.57;;;;;;;9.13;100.00;101279.53;4954129;28;20051;-65
2023/05/24 04:56:02;;;;;;;27.75;5.03;;;;;;;9.05;100.00;101275.72;4954530;28;20487;-66
2023/05/24 04:58:29;;;;;;;21.02;4.10;;;;;;;9.05;100.00;101280.22;4955347;29;20055;-65
2023/05/24 05:00:56;;;;;;;32.13;5.93;;;;;;;9.06;100.00;101285.44;4955113;28;20075;-67
2023/05/24 05:03:22;;;;;;;39.70;6.05;;;;;;;9.13;100.00;101290.22;4954725;28;20047;-65
2023/05/24 05:05:49;;;;;;;32.88;5.85;;;;;;;9.12;100.00;101296.56;4954738;28;20051;-67
2023/05/24 05:08:16;;;;;;;26.85;5.10;;;;;;;9.14;100.00;101302.66;4955233;28;20046;-66
2023/05/24 05:10:42;;;;;;;39.70;6.38;;;;;;;9.14;100.00;101291.94;4954856;28;20110;-72
2023/05/24 05:13:09;;;;;;;32.50;6.07;;;;;;;9.08;100.00;101301.34;4955254;29;20412;-67
2023/05/24 05:15:38;;;;;;;36.72;6.43;;;;;;;9.05;100.00;101304.31;4955226;28;20063;-65
2023/05/24 05:18:08;;;;;;;39.58;6.15;;;;;;;9.17;100.00;101302.38;4954764;28;20492;-67
2023/05/24 05:20:34;;;;;;;32.45;6.13;;;;;;;9.22;100.00;101308.16;4954097;28;20047;-65
2023/05/24 05:23:01;;;;;;;22.13;5.70;;;;;;;9.14;100.00;101313.38;4953495;28;20058;-65
2023/05/24 05:25:29;;;;;;;33.30;6.15;;;;;;;9.12;100.00;101310.81;4954118;28;20175;-65
2023/05/24 05:27:56;;;;;;;27.55;5.90;;;;;;;9.07;100.00;101313.91;4954647;28;20047;-67
2023/05/24 05:30:22;;;;;;;30.10;5.60;;;;;;;9.22;100.00;101314.34;4967731;28;20082;-68
2023/05/24 05:32:49;;;;;;;32.60;6.50;;;;;;;9.24;100.00;101314.28;4973045;28;20397;-65
2023/05/24 05:35:16;;;;;;;37.42;6.03;;;;;;;9.14;100.00;101324.06;4972920;28;20053;-65
2023/05/24 05:37:42;;;;;;;38.25;7.05;;;;;;;9.15;100.00;101326.59;4972009;28;20109;-66
2023/05/24 05:40:09;;;;;;;24.17;5.75;;;;;;;8.98;100.00;101325.41;4974065;28;20194;-66
2023/05/24 05:42:36;;;;;;;27.77;6.38;;;;;;;9.06;100.00;101333.63;4973384;28;20066;-65
2023/05/24 05:45:02;;;;;;;29.45;5.93;;;;;;;9.20;100.00;101334.25;4973451;28;20062;-65
2023/05/24 05:47:29;;;;;;;33.55;6.05;;;;;;;9.23;100.00;101332.13;4956961;28;20050;-66
2023/05/24 05:49:56;;;;;;;27.73;6.53;;;;;;;9.18;100.00;101338.88;4950186;28;20039;-66
2023/05/24 05:52:22;;;;;;;29.63;6.22;;;;;;;9.25;100.00;101340.88;4975551;28;20071;-69
2023/05/24 05:54:49;;;;;;;35.90;7.25;;;;;;;9.12;100.00;101348.28;4976891;28;20066;-67
2023/05/24 05:57:18;;;;;;;38.15;6.35;;;;;;;9.21;100.00;101347.47;4976337;28;20051;-66
2023/05/24 05:59:44;;;;;;;47.75;7.28;;;;;;;9.31;100.00;101350.22;4976128;28;20639;-66
2023/05/24 06:02:11;;;;;;;37.45;6.80;;;;;;;9.12;100.00;101353.63;4976765;28;20050;-66
2023/05/24 06:04:38;;;;;;;38.03;6.35;;;;;;;9.22;100.00;101348.31;4976012;28;20047;-66
2023/05/24 06:07:05;;;;;;;34.05;8.00;;;;;;;9.43;100.00;101353.63;4976471;28;20066;-66
2023/05/24 06:09:31;;;;;;;47.67;11.10;;;;;;;9.49;100.00;101353.91;4977851;28;20491;-66
2023/05/24 06:11:58;;;;;;;39.05;8.40;;;;;;;9.63;100.00;101351.84;4977067;28;20495;-67
2023/05/24 06:14:24;;;;;;;44.17;10.43;;;;;;;9.71;100.00;101368.06;4977124;28;20058;-66
2023/05/24 06:16:53;;;;;;;40.30;9.00;;;;;;;9.73;100.00;101358.91;4977148;28;20051;-66
2023/05/24 06:19:19;;;;;;;37.53;6.88;;;;;;;9.84;100.00;101365.13;4977169;28;20099;-66
2023/05/24 06:21:47;;;;;;;36.50;7.20;;;;;;;9.74;100.00;101355.22;4976168;28;20089;-66
2023/05/24 06:24:14;;;;;;;37.88;6.40;;;;;;;9.85;100.00;101361.44;4976926;28;20102;-66
2023/05/24 06:26:41;;;;;;;29.20;6.30;;;;;;;9.79;100.00;101362.88;4977197;28;20542;-66
2023/05/24 06:29:08;;;;;;;43.63;8.13;;;;;;;9.72;100.00;101367.09;4976660;28;20126;-66
2023/05/24 06:31:35;;;;;;;52.08;7.53;;;;;;;9.85;100.00;101366.81;4976790;28;20557;-67
2023/05/24 06:34:01;;;;;;;32.55;7.22;;;;;;;9.72;100.00;101359.91;4976161;28;20043;-66
2023/05/24 06:36:34;;;;;;;36.25;7.25;;;;;;;9.87;100.00;101360.31;4976397;28;20427;-67
2023/05/24 06:39:01;;;;;;;41.25;7.15;;;;;;;9.87;100.00;101365.69;4976582;28;20491;-66
2023/05/24 06:41:28;;;;;;;32.40;7.60;;;;;;;10.16;100.00;101362.16;4974625;28;20051;-66
2023/05/24 06:43:54;;;;;;;40.20;7.65;;;;;;;9.91;100.00;101371.59;4976656;28;20097;-66
2023/05/24 06:46:21;;;;;;;41.67;7.90;;;;;;;9.80;100.00;101378.78;4960153;28;20105;-68
2023/05/24 06:48:47;;;;;;;34.10;7.50;;;;;;;10.02;100.00;101380.34;4957267;28;20047;-66
2023/05/24 06:51:14;;;;;;;41.75;7.57;;;;;;;9.76;100.00;101382.75;4957118;29;20464;-66
2023/05/24 06:53:41;;;;;;;36.45;6.05;;;;;;;9.81;100.00;101390.34;4956304;28;20046;-66
2023/05/24 06:56:08;;;;;;;38.28;7.25;;;;;;;9.85;100.00;101393.59;4956819;29;20106;-67
2023/05/24 06:58:35;;;;;;;47.60;7.53;;;;;;;9.84;100.00;101394.59;4955206;28;20067;-66
2023/05/24 07:01:03;;;;;;;33.10;6.90;;;;;;;9.86;100.00;101398.84;4956566;29;20144;-67
2023/05/24 07:03:31;;;;;;;36.63;7.32;;;;;;;9.84;100.00;101397.28;4956958;28;20134;-67
2023/05/24 07:05:57;;;;;;;34.40;7.60;;;;;;;9.86;100.00;101406.88;4956559;28;20047;-67
2023/05/24 07:08:24;;;;;;;39.20;7.57;;;;;;;9.95;100.00;101397.97;4956823;29;20109;-66
2023/05/24 07:10:52;;;;;;;36.88;7.13;;;;;;;9.89;100.00;101395.00;4956654;28;20130;-66
2023/05/24 07:13:18;;;;;;;47.28;7.53;;;;;;;10.07;100.00;101403.25;4956487;28;20106;-66
2023/05/24 07:15:45;;;;;;;30.80;7.13;;;;;;;10.00;100.00;101402.94;4956397;28;20051;-66
2023/05/24 07:18:13;;;;;;;32.00;6.00;;;;;;;10.14;100.00;101402.53;4956501;28;20047;-65
2023/05/24 07:20:39;;;;;;;32.70;7.57;;;;;;;10.17;100.00;101404.09;4956201;29;20051;-66
2023/05/24 07:23:07;;;;;;;49.30;7.40;;;;;;;10.24;100.00;101405.22;4955593;28;20519;-66
2023/05/24 07:25:33;;;;;;;37.10;6.63;;;;;;;10.30;100.00;101414.50;4956008;29;20070;-66
2023/05/24 07:28:00;;;;;;;39.42;7.13;;;;;;;10.30;100.00;101422.56;4955743;28;20129;-66
2023/05/24 07:30:27;;;;;;;37.65;7.03;;;;;;;10.25;100.00;101420.31;4970351;28;20549;-66
2023/05/24 07:32:58;;;;;;;;;;;;;;;10.34;100.00;101421.28;4974908;28;20094;-66
2023/05/24 07:35:25;;;;;;;38.40;7.50;;;;;;;10.56;100.00;101421.03;4974927;28;19921;-66
2023/05/24 07:37:51;;;;;;;44.63;7.47;;;;;;;10.43;100.00;101423.13;4975205;28;20046;-67
2023/05/24 07:40:18;;;;;;;33.05;7.47;;;;;;;10.45;100.00;101429.22;4974884;28;20117;-66
2023/05/24 07:42:46;;;;;;;42.10;7.97;;;;;;;10.34;100.00;101429.31;4974411;28;20042;-66
2023/05/24 07:45:13;;;;;;;33.78;7.32;;;;;;;10.44;100.00;101430.16;4974710;28;20125;-66
2023/05/24 07:47:40;;;;;;;44.15;7.35;;;;;;;10.54;100.00;101430.19;4970839;28;20101;-67
2023/05/24 07:50:07;;;;;;;40.58;6.75;;;;;;;10.55;100.00;101422.03;4975032;28;20046;-68
2023/05/24 07:52:34;;;;;;;33.15;7.15;;;;;;;10.46;100.00;101438.94;4974750;28;20047;-65
2023/05/24 07:55:00;;;;;;;28.63;6.55;;;;;;;10.50;100.00;101437.69;4974382;28;20054;-65
2023/05/24 07:57:27;;;;;;;35.10;6.93;;;;;;;10.58;100.00;101442.34;4974501;28;20058;-67
2023/05/24 07:59:54;;;;;;;39.08;7.75;;;;;;;10.48;100.00;101443.19;4973966;28;20423;-67
2023/05/24 08:02:20;;;;;;;43.05;7.95;;;;;;;10.54;100.00;101446.31;4959034;28;20102;-66
2023/05/24 08:04:47;;;;;;;40.50;8.30;;;;;;;10.66;100.00;101447.84;4955472;28;20054;-66
2023/05/24 08:07:14;;;;;;;49.45;8.35;;;;;;;10.68;100.00;101449.38;4955394;28;20047;-68
2023/05/24 08:09:41;;;;;;;31.98;6.90;;;;;;;10.61;100.00;101450.09;4955662;29;20051;-67
2023/05/24 08:12:08;;;;;;;38.83;6.70;;;;;;;10.65;100.00;101451.50;4954830;28;20537;-66
2023/05/24 08:14:34;;;;;;;37.63;7.38;;;;;;;10.63;100.00;101442.78;4954102;29;20058;-67
2023/05/24 08:17:01;;;;;;;33.63;6.57;;;;;;;10.85;100.00;101452.34;4954550;28;20047;-67
2023/05/24 08:19:27;;;;;;;43.33;7.78;;;;;;;11.04;100.00;101457.69;4955097;28;20507;-66
2023/05/24 08:21:56;;;;;;;31.95;6.20;;;;;;;11.18;100.00;101456.38;4951699;28;20039;-65
2023/05/24 08:24:22;;;;;;;34.55;7.68;;;;;;;11.17;100.00;101457.34;4955175;28;20094;-66
2023/05/24 08:26:51;;;;;;;38.65;8.02;;;;;;;11.19;100.00;101460.72;4954864;28;20047;-67
2023/05/24 08:29:18;;;;;;;43.75;7.65;;;;;;;11.13;100.00;101458.63;4954462;28;20527;-67
2023/05/24 08:31:44;;;;;;;43.25;6.75;;;;;;;11.34;100.00;101459.25;4954775;29;20416;-66
2023/05/24 08:34:11;;;;;;;36.47;6.55;;;;;;;11.40;100.00;101460.50;4954727;28;20050;-66
2023/05/24 08:36:39;;;;;;;32.22;7.15;;;;;;;11.27;100.00;101458.16;4950634;28;20492;-67
2023/05/24 08:39:06;;;;;;;35.78;6.35;;;;;;;11.38;100.00;101457.16;4953128;28;20074;-66
2023/05/24 08:41:36;;;;;;;26.30;6.57;;;;;;;11.37;100.00;101466.19;4954299;28;20051;-66
2023/05/24 08:44:05;;;;;;;27.33;6.60;;;;;;;11.38;100.00;101467.91;4953334;28;20063;-65
2023/05/24 08:46:35;;;;;;;38.38;7.18;;;;;;;11.36;100.00;101472.56;4954549;28;20047;-68
2023/05/24 08:49:02;;;;;;;33.65;6.63;;;;;;;11.45;100.00;101474.38;4954471;29;20126;-66
2023/05/24 08:51:30;;;;;;;32.00;7.28;;;;;;;11.26;100.00;101475.28;4954402;28;20456;-67
2023/05/24 08:53:59;;;;;;;30.70;6.05;;;;;;;11.26;100.00;101486.00;4954380;28;20047;-66
2023/05/24 08:56:29;;;;;;;32.67;6.13;;;;;;;11.31;100.00;101475.69;4951454;28;20105;-69
2023/05/24 08:58:55;;;;;;;27.05;5.18;;;;;;;11.26;100.00;101477.94;4954066;28;20102;-70
2023/05/24 09:01:23;;;;;;;30.77;5.07;;;;;;;11.61;100.00;101481.78;4954459;28;20102;-68
2023/05/24 09:03:52;;;;;;;28.25;5.60;;;;;;;11.69;97.92;101484.63;4954241;28;20047;-68
2023/05/24 09:06:20;;;;;;;30.05;6.90;;;;;;;11.74;97.28;101486.84;4954252;28;20054;-67
2023/05/24 09:08:51;;;;;;;25.42;5.90;;;;;;;11.82;95.71;101490.47;4954155;29;20071;-67
2023/05/24 09:11:18;;;;;;;21.35;5.30;;;;;;;11.86;96.36;101491.00;4954562;28;20051;-67
2023/05/24 09:13:44;;;;;;;31.33;5.55;;;;;;;11.90;95.69;101489.75;4952534;28;20048;-70
2023/05/24 09:16:11;;;;;;;30.35;5.85;;;;;;;12.10;92.38;101496.66;4954654;29;20043;-68
2023/05/24 09:18:41;;;;;;;33.97;5.35;;;;;;;11.85;90.35;101492.03;4954097;28;20047;-67
2023/05/24 09:21:10;;;;;;;27.05;6.20;;;;;;;11.92;91.43;101490.41;4953582;29;20106;-66
2023/05/24 09:23:37;;;;;;;25.45;5.85;;;;;;;12.16;89.25;101492.53;4953427;28;20095;-66
2023/05/24 09:26:08;;;;;;;34.28;8.23;;;;;;;12.38;89.10;101486.72;4953437;28;20084;-66
2023/05/24 09:28:36;;;;;;;34.17;5.57;;;;;;;12.26;86.94;101487.94;4953583;28;20047;-68
2023/05/24 09:31:03;;;;;;;24.63;5.65;;;;;;;12.37;85.32;101486.88;4972680;28;20047;-67
2023/05/24 09:33:34;;;;;;;22.27;4.70;;;;;;;12.15;88.29;101488.16;4972951;28;20488;-66
2023/05/24 09:36:03;;;;;;;27.80;5.65;;;;;;;12.03;88.80;101486.69;4973462;28;20046;-66
2023/05/24 09:38:29;;;;;;;27.52;5.57;;;;;;;12.11;89.54;101484.09;4972861;28;20051;-66
2023/05/24 09:41:07;;;;;;;26.17;5.38;;;;;;;12.04;92.32;101485.69;4972561;28;20482;-66
2023/05/24 09:43:46;;;;;;;31.73;5.57;;;;;;;12.03;90.92;101486.69;4956323;28;20113;-68
2023/05/24 09:46:18;;;;;;;29.35;4.88;;;;;;;12.01;91.37;101484.16;4972494;28;20134;-68
2023/05/24 09:48:58;;;;;;;22.83;5.20;;;;;;;11.96;92.75;101490.97;4970098;28;20102;-67
2023/05/24 09:51:25;;;;;;;23.45;5.00;;;;;;;11.81;87.16;101488.78;4972671;28;20078;-68
2023/05/24 09:53:56;;;;;;;25.95;4.78;;;;;;;12.04;84.55;101491.91;4972961;28;20480;-66
2023/05/24 09:56:23;;;;;;;19.80;4.43;;;;;;;11.99;86.48;101496.88;4972375;28;20046;-66
2023/05/24 09:58:50;;;;;;;24.33;4.47;;;;;;;12.02;86.85;101498.44;4973565;28;20046;-69
2023/05/24 10:01:17;;;;;;;19.52;4.63;;;;;;;12.06;84.13;101497.13;4972951;28;20467;-68
2023/05/24 10:03:54;;;;;;;26.27;4.68;;;;;;;11.95;84.57;101495.50;4973014;28;20105;-66
2023/05/24 10:06:22;;;;;;;24.17;4.88;;;;;;;12.19;83.48;101494.94;4972965;28;20074;-66
2023/05/24 10:08:50;;;;;;;26.65;5.50;;;;;;;12.05;87.00;101501.69;4972716;28;20051;-67
2023/05/24 10:11:17;;;;;;;23.20;5.57;;;;;;;11.99;89.15;101509.50;4972740;28;20051;-65
2023/05/24 10:13:44;;;;;;;21.92;5.18;;;;;;;12.13;86.28;101509.81;4972951;28;20053;-69
2023/05/24 10:16:11;;;;;;;22.38;5.05;;;;;;;12.17;86.63;101508.56;4973311;28;20451;-68
2023/05/24 10:18:38;;;;;;;17.65;4.53;;;;;;;12.08;88.13;101517.50;4972092;28;20071;-65
2023/05/24 10:21:07;;;;;;;14.63;3.97;;;;;;;12.09;88.35;101511.13;4972900;28;20046;-68
2023/05/24 10:23:38;;;;;;;22.52;4.20;;;;;;;12.18;86.42;101514.78;4972801;28;20050;-67
2023/05/24 10:26:07;;;;;;;26.20;4.25;;;;;;;12.05;87.28;101508.91;4972669;28;20423;-68
2023/05/24 10:28:39;;;;;;;21.17;5.07;;;;;;;11.91;88.57;101505.72;4972823;28;20491;-68
2023/05/24 10:31:16;;;;;;;20.88;4.00;;;;;;;11.96;85.96;101507.09;4974732;28;20102;-70
2023/05/24 10:33:45;;;;;;;26.80;4.22;;;;;;;12.17;83.46;101510.38;4982382;28;20121;-70
2023/05/24 10:36:13;;;;;;;19.30;4.38;;;;;;;12.21;83.99;101506.41;4984241;28;20564;-68
2023/05/24 10:38:39;;;;;;;21.75;4.00;;;;;;;12.19;84.66;101508.38;4975433;28;20043;-70
2023/05/24 10:41:07;;;;;;;20.27;4.60;;;;;;;12.38;84.72;101512.78;4965357;29;20050;-69
2023/05/24 10:43:37;;;;;;;19.17;4.15;;;;;;;12.33;86.07;101510.56;4965167;29;20059;-70
2023/05/24 10:46:09;;;;;;;16.70;4.13;;;;;;;12.31;85.34;101512.53;4965746;29;20047;-68
2023/05/24 10:48:40;;;;;;;25.93;4.70;;;;;;;12.46;82.93;101512.03;4965939;29;20470;-69
2023/05/24 10:51:31;;;;;;;17.20;4.50;;;;;;;12.72;80.16;101518.31;4966203;29;20338;-68
2023/05/24 10:54:13;;;;;;;16.55;4.00;;;;;;;12.62;80.22;101520.25;4964677;29;20074;-70
2023/05/24 10:56:41;;;;;;;19.13;4.53;;;;;;;12.47;81.62;101511.88;4964613;29;20043;-71
2023/05/24 10:59:08;;;;;;;18.17;4.10;;;;;;;12.73;80.34;101519.16;4965700;29;20047;-71
2023/05/24 11:01:35;;;;;;;16.63;4.18;;;;;;;13.10;78.10;101518.97;4964885;29;20083;-69
2023/05/24 11:04:10;;;;;;;18.67;3.80;;;;;;;13.54;73.90;101517.06;4963505;29;20046;-70
2023/05/24 11:06:59;;;;;;;16.02;4.07;;;;;;;13.78;72.43;101507.47;4962412;29;20539;-71
2023/05/24 11:09:26;;;;;;;20.02;7.10;;;;;;;14.16;68.45;101508.75;4960633;29;20048;-71
2023/05/24 11:11:56;;;;;;;16.45;4.13;;;;;;;13.79;66.96;101504.59;4966069;29;20106;-68
2023/05/24 11:14:26;;;;;;;13.90;3.45;;;;;;;13.46;68.01;101506.25;4965419;29;20051;-68
2023/05/24 11:16:52;;;;;;;13.00;3.83;;;;;;;13.61;67.58;101506.50;4965131;29;20388;-68
2023/05/24 11:19:21;;;;;;;10.27;2.97;;;;;;;13.72;66.15;101506.22;4965228;29;20067;-68
2023/05/24 11:21:52;;;;;;;14.93;3.95;;;;;;;13.80;65.39;101509.00;4964788;28;20043;-68
2023/05/24 11:24:20;;;;;;;18.20;4.38;;;;;;;13.47;67.83;101509.81;4965631;29;20043;-67
2023/05/24 11:26:48;;;;;;;16.35;3.75;;;;;;;13.57;67.18;101511.38;4965328;29;20054;-68